Rosier, Georgia
Current Conditions -  °F | °C
As of 1:15 PM on Tuesday 21 Oct 2014 (Local Time) from KOKZ Reporting Station
Clear Clear  
Wind Chill: 75°   Ceiling: Unl
Heat Index: 75°   Visibility: 10mi
Dew Point: 53°   Wind: 8mph
Humidity: 46%   Direction: 280°W
Pressure: 30"   Gusts: NA
Location:  33.028°N, 82.379°W
Report Text: KOKZ 211715Z AUTO 28007KT 10SM CLR 24/12 A3000 RMK AO2 T02370115
Loading
Personal Weather Stations






























Interactive Weather Map
Tropical Storm Tracking
New forecast layout! Learn more

10-Day Weather Forecast

Advertisements
Track Severe Weather on mobile